Time;durP1;ratioP1;P1;durP2;ratioP2;P2;SDS_P1;SDS_P2;PMS_P1;PMS_P2;Temp;Humidity;BMP_temperature;BMP_pressure;BME280_temperature;BME280_humidity;BME280_pressure;Samples;Min_cycle;Max_cycle;Signal;HPM_P1;HPM_P2
2021/12/02 00:00:55;;;;;;;;;5.33;5.33;;;;;8.65;64.41;99839.19;4975809;28;45664;-78
2021/12/02 00:03:21;;;;;;;;;8.67;6.00;;;;;8.75;64.04;99855.97;4975911;28;45783;-80
2021/12/02 00:05:46;;;;;;;;;7.33;5.00;;;;;8.76;64.54;99854.09;4982743;28;45569;-80
2021/12/02 00:08:12;;;;;;;;;5.00;4.00;;;;;8.77;63.71;99851.13;4993931;28;45814;-79
2021/12/02 00:10:40;;;;;;;;;5.00;4.00;;;;;8.77;64.65;99867.53;5013874;28;45050;-84
2021/12/02 00:13:06;;;;;;;;;7.67;6.00;;;;;8.68;64.32;99848.88;5013337;28;45603;-84
2021/12/02 00:15:53;;;;;;;;;7.00;4.00;;;;;8.77;64.40;99863.94;4990544;28;45534;-84
2021/12/02 00:21:05;;;;;;;;;1.67;1.00;;;;;8.76;64.32;99870.50;4994892;28;45813;-80
2021/12/02 00:23:42;;;;;;;;;6.33;4.67;;;;;8.74;64.10;99859.78;4995155;28;46082;-79
2021/12/02 00:26:18;;;;;;;;;5.00;5.00;;;;;8.86;63.98;99876.31;4993663;28;45573;-80
2021/12/02 00:28:46;;;;;;;;;10.67;5.00;;;;;8.80;64.34;99863.50;4993637;28;45943;-77
2021/12/02 00:31:17;;;;;;;;;10.00;5.67;;;;;8.75;64.06;99846.94;4992273;28;46134;-78
2021/12/02 00:33:46;;;;;;;;;6.67;3.67;;;;;8.91;64.33;99867.47;4993628;28;45392;-79
2021/12/02 00:36:14;;;;;;;;;2.67;2.67;;;;;8.97;63.55;99885.72;4993961;28;45464;-77
2021/12/02 00:38:41;;;;;;;;;7.67;6.00;;;;;8.99;64.17;99883.59;4993148;28;45440;-79
2021/12/02 00:41:16;;;;;;;;;4.67;4.67;;;;;8.96;63.86;99882.13;4993173;28;45812;-77
2021/12/02 00:43:43;;;;;;;;;3.00;3.00;;;;;9.00;63.81;99888.84;4992712;28;45732;-78
2021/12/02 00:46:12;;;;;;;;;8.00;5.00;;;;;8.97;64.04;99880.25;4994053;28;45548;-78
2021/12/02 00:48:40;;;;;;;;;9.00;5.67;;;;;8.92;63.97;99872.72;4994668;28;45410;-78
2021/12/02 00:51:06;;;;;;;;;4.00;4.00;;;;;8.96;64.04;99886.78;4992539;28;46430;-80
2021/12/02 00:53:34;;;;;;;;;7.00;5.00;;;;;8.90;63.77;99880.28;4994324;28;45817;-79
2021/12/02 00:56:03;;;;;;;;;5.33;5.33;;;;;8.94;64.13;99895.19;4994679;28;45422;-85
2021/12/02 00:58:30;;;;;;;;;7.00;4.33;;;;;8.94;64.33;99897.94;4996069;28;47010;-85
2021/12/02 01:00:57;;;;;;;;;5.00;5.00;;;;;8.98;64.21;99901.06;5016960;28;45724;-84
2021/12/02 01:03:24;;;;;;;;;8.33;6.00;;;;;9.01;64.29;99906.09;5013948;28;45838;-85
2021/12/02 01:05:51;;;;;;;;;4.00;4.00;;;;;8.97;64.21;99892.03;5015997;28;45484;-85
2021/12/02 01:08:18;;;;;;;;;5.00;4.00;;;;;8.98;64.19;99896.44;5016182;28;45736;-87
2021/12/02 01:10:45;;;;;;;;;5.67;5.67;;;;;9.04;64.29;99902.09;5000192;28;47710;-86
2021/12/02 01:13:10;;;;;;;;;3.67;3.67;;;;;9.07;64.25;99923.53;4996318;28;45418;-83
2021/12/02 01:15:36;;;;;;;;;7.00;4.00;;;;;9.05;64.59;99914.72;4998101;28;45380;-84
2021/12/02 01:18:02;;;;;;;;;4.67;4.33;;;;;9.02;64.58;99905.88;4997180;28;46736;-84
2021/12/02 01:20:30;;;;;;;;;6.00;5.33;;;;;9.02;64.44;99908.59;4999075;28;46385;-84
2021/12/02 01:22:58;;;;;;;;;6.33;6.00;;;;;8.89;64.56;99891.44;4997674;28;45440;-83
2021/12/02 01:25:24;;;;;;;;;7.00;6.00;;;;;9.05;64.46;99909.25;4998888;28;45451;-83
2021/12/02 01:27:51;;;;;;;;;5.00;5.00;;;;;9.03;64.81;99912.19;4997145;28;46190;-86
2021/12/02 01:30:18;;;;;;;;;6.00;6.00;;;;;9.03;64.57;99917.66;4997022;28;45404;-84
2021/12/02 01:32:45;;;;;;;;;5.33;5.33;;;;;9.04;64.93;99932.16;4997128;28;45818;-83
2021/12/02 01:35:10;;;;;;;;;5.00;5.00;;;;;8.96;64.72;99917.69;4995924;28;45375;-83
2021/12/02 01:37:36;;;;;;;;;5.00;5.00;;;;;9.00;64.77;99929.03;4994213;28;45513;-82
2021/12/02 01:40:02;;;;;;;;;7.00;6.00;;;;;9.01;64.89;99936.16;4993027;28;48151;-82
2021/12/02 01:42:34;;;;;;;;;6.00;5.00;;;;;8.78;64.71;99928.50;4996422;28;45431;-82
2021/12/02 01:45:02;;;;;;;;;7.33;6.00;;;;;8.91;64.96;99941.31;4995605;28;45886;-83
2021/12/02 01:47:32;;;;;;;;;4.67;4.67;;;;;8.91;64.83;99944.84;4993386;28;46092;-82
2021/12/02 01:50:01;;;;;;;;;3.67;3.67;;;;;8.95;64.79;99957.06;4995102;28;45460;-82
2021/12/02 01:52:32;;;;;;;;;7.67;5.67;;;;;8.79;64.49;99927.47;4994561;28;45778;-82
2021/12/02 01:55:08;;;;;;;;;4.00;4.00;;;;;8.92;64.64;99954.75;4994653;28;45396;-81
2021/12/02 01:57:39;;;;;;;;;8.00;6.33;;;;;8.97;64.44;99945.88;4995144;28;45697;-83
2021/12/02 02:00:14;;;;;;;;;3.67;3.67;;;;;8.97;64.32;99962.31;4984187;28;46147;-83
2021/12/02 02:02:40;;;;;;;;;4.33;4.33;;;;;8.93;65.01;99967.34;4979323;28;45521;-84
2021/12/02 02:05:12;;;;;;;;;6.00;6.00;;;;;8.89;64.46;99982.53;4978825;28;45739;-83
2021/12/02 02:07:42;;;;;;;;;8.67;5.00;;;;;8.91;64.62;99985.06;4994713;28;46287;-84
2021/12/02 02:10:07;;;;;;;;;3.00;3.00;;;;;8.94;64.58;99988.19;5004926;28;45482;-82
2021/12/02 02:12:33;;;;;;;;;4.67;4.00;;;;;8.92;64.36;99987.56;5015028;28;45449;-83
2021/12/02 02:15:00;;;;;;;;;5.33;4.67;;;;;8.84;64.37;99974.13;5015181;28;45771;-83
2021/12/02 02:17:34;;;;;;;;;4.00;4.00;;;;;8.90;64.61;99997.03;5015112;28;45909;-83
2021/12/02 02:20:01;;;;;;;;;3.33;3.00;;;;;8.86;64.57;99982.09;5013822;28;45512;-84
2021/12/02 02:22:27;;;;;;;;;3.00;3.00;;;;;8.88;64.19;99990.94;5013028;28;45624;-82
2021/12/02 02:24:53;;;;;;;;;6.33;4.00;;;;;8.85;64.28;100003.16;5013022;28;45678;-83
2021/12/02 02:27:20;;;;;;;;;4.00;4.00;;;;;8.85;64.13;100000.41;5012837;28;45757;-82
2021/12/02 02:29:46;;;;;;;;;3.00;3.00;;;;;8.83;64.39;99999.78;5010835;28;47246;-80
2021/12/02 02:32:11;;;;;;;;;3.00;3.00;;;;;8.73;64.27;99988.47;5011352;28;45573;-83
2021/12/02 02:34:37;;;;;;;;;4.67;3.67;;;;;8.82;64.41;100006.31;5013665;28;45439;-82
2021/12/02 02:37:05;;;;;;;;;5.00;4.33;;;;;8.68;64.65;100004.66;5013869;28;45562;-82
2021/12/02 02:39:33;;;;;;;;;3.67;3.00;;;;;8.77;64.50;100015.19;4977823;28;45823;-82
2021/12/02 02:42:00;;;;;;;;;4.00;4.00;;;;;8.74;64.45;100018.34;4996573;28;45419;-82
2021/12/02 02:44:28;;;;;;;;;2.00;2.00;;;;;8.72;63.72;100011.41;4994709;28;45413;-84
2021/12/02 02:46:55;;;;;;;;;2.00;2.00;;;;;8.65;63.85;100020.47;4998593;28;45443;-83
2021/12/02 02:49:21;;;;;;;;;3.33;2.33;;;;;8.65;64.03;100017.72;5002378;28;45415;-83
2021/12/02 02:51:48;;;;;;;;;1.67;1.67;;;;;8.65;63.86;100017.72;5002022;28;45463;-83
2021/12/02 02:54:16;;;;;;;;;4.67;2.67;;;;;8.60;63.75;100017.50;4998467;28;45941;-81
2021/12/02 02:56:56;;;;;;;;;2.33;1.00;;;;;8.62;63.50;100022.75;4997734;28;45610;-83
2021/12/02 02:59:37;;;;;;;;;2.00;2.00;;;;;8.51;63.70;100018.81;5007053;28;45608;-84
2021/12/02 03:02:22;;;;;;;;;4.00;1.00;;;;;8.55;63.75;100024.66;5017351;28;45754;-83
2021/12/02 03:07:38;;;;;;;;;4.00;1.00;;;;;8.51;62.85;100027.00;5017072;28;45426;-83
2021/12/02 03:12:36;;;;;;;;;1.33;1.00;;;;;8.45;62.96;100041.50;4986060;28;45842;-83
2021/12/02 03:17:30;;;;;;;;;3.33;1.33;;;;;8.48;62.65;100054.75;4982935;28;45487;-80
2021/12/02 03:19:56;;;;;;;;;2.33;1.33;;;;;8.48;62.84;100057.47;4976532;28;45734;-76
2021/12/02 03:22:22;;;;;;;;;1.00;1.00;;;;;8.49;62.51;100061.91;4976300;28;45749;-76
2021/12/02 03:24:47;;;;;;;;;0.33;0.33;;;;;8.48;62.71;100066.50;4975240;28;45349;-75
2021/12/02 03:27:13;;;;;;;;;0.00;0.00;;;;;8.44;62.59;100061.69;4982919;28;45761;-76
2021/12/02 03:29:40;;;;;;;;;2.00;1.00;;;;;8.43;61.95;100060.81;4994785;28;45732;-76
2021/12/02 03:32:06;;;;;;;;;1.00;1.00;;;;;8.48;61.62;100061.06;4995147;28;45475;-74
2021/12/02 03:34:32;;;;;;;;;1.00;1.00;;;;;8.44;61.87;100057.09;4994772;28;45596;-75
2021/12/02 03:36:58;;;;;;;;;0.00;0.00;;;;;8.46;62.50;100071.38;4994563;28;45455;-75
2021/12/02 03:39:25;;;;;;;;;0.00;0.00;;;;;8.44;62.58;100073.47;4994290;28;45737;-75
2021/12/02 03:41:51;;;;;;;;;3.00;1.00;;;;;8.27;61.93;100051.16;4994532;28;45508;-76
2021/12/02 03:44:17;;;;;;;;;2.00;0.33;;;;;8.28;62.02;100071.97;4993080;28;45431;-76
2021/12/02 03:46:42;;;;;;;;;1.00;1.00;;;;;8.22;62.10;100070.09;4994545;28;45745;-77
2021/12/02 03:49:08;;;;;;;;;0.00;0.00;;;;;8.15;61.69;100068.41;4993590;28;46541;-75
2021/12/02 03:51:34;;;;;;;;;3.00;2.00;;;;;8.16;61.75;100081.84;4992614;28;45623;-78
2021/12/02 03:53:59;;;;;;;;;2.00;0.00;;;;;8.10;61.42;100090.88;4974794;28;45322;-75
2021/12/02 03:56:26;;;;;;;;;2.33;0.00;;;;;8.02;61.00;100091.91;4985937;28;45510;-76
2021/12/02 03:58:52;;;;;;;;;3.67;2.00;;;;;7.93;59.90;100093.16;4976131;28;46237;-76
2021/12/02 04:01:20;;;;;;;;;2.00;0.67;;;;;7.79;59.36;100092.31;4993439;28;45439;-75
2021/12/02 04:03:46;;;;;;;;;0.00;0.00;;;;;7.68;60.11;100092.91;4992791;28;45998;-75
2021/12/02 04:06:12;;;;;;;;;0.00;0.00;;;;;7.71;60.14;100092.47;4993866;28;45931;-77
2021/12/02 04:08:46;;;;;;;;;1.33;1.33;;;;;7.58;59.67;100071.47;4995627;28;46912;-75
2021/12/02 04:11:26;;;;;;;;;1.00;0.00;;;;;7.60;59.53;100088.47;5014272;28;45909;-76
2021/12/02 04:14:04;;;;;;;;;1.00;0.00;;;;;7.53;60.33;100098.53;5013959;28;45748;-75
2021/12/02 04:16:34;;;;;;;;;0.00;0.00;;;;;7.41;59.99;100101.84;5013502;28;45738;-75
2021/12/02 04:18:59;;;;;;;;;0.00;0.00;;;;;7.36;60.30;100108.97;5013908;28;45759;-76
2021/12/02 04:21:25;;;;;;;;;2.00;0.33;;;;;7.28;59.71;100104.53;5014838;28;45580;-76
2021/12/02 04:23:50;;;;;;;;;2.67;1.00;;;;;7.21;60.33;100114.56;5015051;28;45866;-75
2021/12/02 04:26:16;;;;;;;;;3.00;1.00;;;;;7.08;59.87;100101.72;5014986;28;45728;-76
2021/12/02 04:28:41;;;;;;;;;0.00;0.00;;;;;7.10;60.61;100107.81;5014560;28;46213;-76
2021/12/02 04:31:07;;;;;;;;;2.00;1.00;;;;;7.03;60.54;100131.44;5014158;28;45444;-82
2021/12/02 04:33:32;;;;;;;;;0.00;0.00;;;;;6.96;60.51;100125.97;5007276;28;45938;-83
2021/12/02 04:36:00;;;;;;;;;0.00;0.00;;;;;6.81;61.40;100122.50;4977769;28;45670;-83
2021/12/02 04:38:27;;;;;;;;;3.33;1.00;;;;;6.79;61.19;100135.50;4978210;28;45386;-83
2021/12/02 04:40:52;;;;;;;;;1.00;0.00;;;;;6.70;61.49;100143.81;4978284;28;45389;-82
2021/12/02 04:43:18;;;;;;;;;1.33;1.33;;;;;6.66;62.48;100141.69;4990303;28;45784;-83
2021/12/02 04:45:43;;;;;;;;;2.00;1.00;;;;;6.62;61.58;100140.41;4997131;28;45499;-82
2021/12/02 04:48:09;;;;;;;;;2.33;1.00;;;;;6.59;61.89;100151.72;4996953;28;45355;-84
2021/12/02 04:50:34;;;;;;;;;1.00;1.00;;;;;6.61;62.44;100141.44;4997103;28;45853;-84
2021/12/02 04:53:00;;;;;;;;;1.00;1.00;;;;;6.56;62.32;100152.94;4997834;28;45459;-82
2021/12/02 04:55:25;;;;;;;;;1.00;1.00;;;;;6.42;61.67;100129.34;4997983;28;45637;-83
2021/12/02 04:57:51;;;;;;;;;1.33;1.00;;;;;6.49;62.17;100141.97;4996445;28;45956;-83
2021/12/02 05:00:17;;;;;;;;;0.67;0.00;;;;;6.43;62.43;100150.09;4994115;28;45447;-82
2021/12/02 05:02:44;;;;;;;;;0.67;0.67;;;;;6.41;62.13;100161.19;4995069;28;45813;-83
2021/12/02 05:05:09;;;;;;;;;2.00;1.00;;;;;6.38;62.78;100172.50;4992582;28;45533;-86
2021/12/02 05:07:35;;;;;;;;;3.33;2.00;;;;;6.38;62.49;100167.03;4992444;28;45538;-83
2021/12/02 05:10:03;;;;;;;;;0.00;0.00;;;;;6.31;62.49;100166.97;4984387;28;45504;-83
2021/12/02 05:12:28;;;;;;;;;2.33;0.33;;;;;6.21;62.86;100158.28;4985971;28;45497;-84
2021/12/02 05:14:54;;;;;;;;;3.33;1.00;;;;;6.19;62.42;100163.09;4984615;28;45664;-82
2021/12/02 05:17:19;;;;;;;;;2.33;1.00;;;;;6.14;62.17;100169.13;4991549;28;47150;-83
2021/12/02 05:19:45;;;;;;;;;2.67;1.00;;;;;6.13;62.11;100169.31;4994576;28;45282;-83
2021/12/02 05:22:11;;;;;;;;;2.00;1.00;;;;;6.15;63.00;100167.22;4995541;28;45682;-81
2021/12/02 05:24:37;;;;;;;;;3.33;2.00;;;;;6.20;62.43;100172.94;4994486;28;45871;-82
2021/12/02 05:27:03;;;;;;;;;1.67;0.67;;;;;6.22;62.30;100172.75;4997760;28;46778;-82
2021/12/02 05:29:28;;;;;;;;;4.00;1.00;;;;;6.15;62.38;100161.78;4998226;28;45373;-82
2021/12/02 05:31:53;;;;;;;;;1.67;1.67;;;;;6.30;62.27;100186.22;4999863;28;44924;-83
2021/12/02 05:34:19;;;;;;;;;4.00;2.00;;;;;6.25;62.50;100172.34;5000694;28;45929;-83
2021/12/02 05:36:44;;;;;;;;;14.67;11.00;;;;;6.34;62.88;100188.34;4997217;28;47018;-84
2021/12/02 05:39:10;;;;;;;;;2.00;2.00;;;;;6.27;62.35;100178.44;4996677;28;45519;-84
2021/12/02 05:41:35;;;;;;;;;6.33;4.00;;;;;6.34;63.20;100190.25;4991085;28;45506;-82
2021/12/02 05:44:01;;;;;;;;;5.00;4.00;;;;;6.34;62.61;100190.25;4986429;28;45503;-78
2021/12/02 05:46:27;;;;;;;;;3.00;3.00;;;;;6.31;62.57;100180.56;4975947;28;45434;-77
2021/12/02 05:48:53;;;;;;;;;2.33;2.00;;;;;6.18;62.90;100161.38;4979115;28;45666;-76
2021/12/02 05:51:18;;;;;;;;;3.67;3.00;;;;;6.28;62.00;100191.03;4976526;28;45538;-77
2021/12/02 05:53:44;;;;;;;;;4.33;1.67;;;;;6.11;62.06;100168.69;4975897;28;45333;-77
2021/12/02 05:56:11;;;;;;;;;6.33;1.00;;;;;6.15;62.34;100187.16;4974728;28;45373;-87
2021/12/02 05:58:36;;;;;;;;;4.00;2.00;;;;;6.03;62.65;100177.78;4986895;28;45489;-81
2021/12/02 06:01:02;;;;;;;;;4.00;2.00;;;;;6.08;62.64;100196.25;4979027;28;45454;-80
2021/12/02 06:03:28;;;;;;;;;5.00;2.00;;;;;5.99;62.87;100187.41;4978488;28;46146;-83
2021/12/02 06:05:53;;;;;;;;;2.67;1.00;;;;;6.07;62.62;100206.31;4991616;28;45836;-79
2021/12/02 06:08:19;;;;;;;;;2.00;2.00;;;;;6.00;62.51;100202.66;4985351;28;45769;-76
2021/12/02 06:10:45;;;;;;;;;1.33;1.33;;;;;6.05;63.25;100215.69;4976656;28;45579;-74
2021/12/02 06:13:10;;;;;;;;;2.00;2.00;;;;;5.94;62.88;100195.25;4974586;28;45753;-72
2021/12/02 06:15:36;;;;;;;;;3.33;3.33;;;;;6.02;62.87;100211.50;4971790;28;46274;-73
2021/12/02 06:18:02;;;;;;;;;4.00;3.00;;;;;6.00;62.73;100202.66;4984974;28;45827;-74
2021/12/02 06:20:27;;;;;;;;;3.00;3.00;;;;;5.94;62.92;100200.69;4987203;28;46507;-73
2021/12/02 06:22:53;;;;;;;;;8.33;5.00;;;;;5.91;63.23;100191.03;4984897;28;46239;-73
2021/12/02 06:27:53;;;;;;;;;1.67;1.67;;;;;5.89;63.03;100193.09;4971493;28;45494;-74
2021/12/02 06:30:22;;;;;;;;;1.00;1.00;;;;;5.80;63.19;100192.38;4973534;28;45381;-73
2021/12/02 06:32:48;;;;;;;;;1.33;1.33;;;;;5.85;62.92;100199.94;4991759;28;45510;-75
2021/12/02 06:35:14;;;;;;;;;3.67;3.00;;;;;5.86;62.59;100208.97;4991192;28;45886;-75
2021/12/02 06:37:41;;;;;;;;;2.33;1.00;;;;;5.80;62.55;100205.13;4991433;28;45829;-78
2021/12/02 06:40:08;;;;;;;;;3.00;1.00;;;;;5.80;62.89;100207.84;4991071;28;45838;-79
2021/12/02 06:42:34;;;;;;;;;2.67;1.33;;;;;5.78;63.15;100218.94;4990796;28;45573;-77
2021/12/02 06:45:00;;;;;;;;;3.00;1.67;;;;;5.74;63.16;100214.91;4990476;28;46020;-81
2021/12/02 06:47:31;;;;;;;;;9.67;3.00;;;;;5.73;63.46;100232.25;4990516;28;45499;-81
2021/12/02 06:50:02;;;;;;;;;4.00;4.00;;;;;5.66;63.50;100242.22;4992288;28;45347;-83
2021/12/02 06:52:29;;;;;;;;;4.33;2.67;;;;;5.58;63.01;100237.72;4989361;28;45828;-71
2021/12/02 06:54:55;;;;;;;;;6.33;2.00;;;;;5.62;63.27;100266.22;4990484;28;45518;-76
2021/12/02 06:57:21;;;;;;;;;4.00;4.00;;;;;5.65;63.05;100265.00;4988648;28;45509;-80
2021/12/02 06:59:47;;;;;;;;;2.67;1.67;;;;;5.72;62.71;100271.41;4972483;28;45594;-77
2021/12/02 07:02:13;;;;;;;;;2.67;2.67;;;;;5.78;62.47;100270.63;4976722;28;45378;-77
2021/12/02 07:04:38;;;;;;;;;4.00;2.33;;;;;5.85;62.03;100276.16;4976021;28;48152;-78
2021/12/02 07:07:04;;;;;;;;;3.00;2.00;;;;;5.89;61.83;100282.06;4971761;28;45763;-75
2021/12/02 07:09:30;;;;;;;;;1.33;1.33;;;;;5.94;62.15;100293.22;4974891;28;45489;-75
2021/12/02 07:11:55;;;;;;;;;2.33;2.33;;;;;5.88;61.53;100259.44;4980667;28;45320;-79
2021/12/02 07:14:22;;;;;;;;;2.33;1.00;;;;;5.96;61.19;100286.56;4983083;28;46259;-81
2021/12/02 07:16:57;;;;;;;;;2.67;2.00;;;;;5.93;60.39;100280.66;4991329;28;45838;-80
2021/12/02 07:19:22;;;;;;;;;5.00;2.33;;;;;5.77;60.98;100258.06;4987437;28;45784;-80
2021/12/02 07:21:56;;;;;;;;;5.33;3.00;;;;;5.91;61.18;100296.31;4974006;28;45515;-77
2021/12/02 07:24:23;;;;;;;;;2.67;2.00;;;;;5.76;61.19;100304.50;5006394;28;45763;-79
2021/12/02 07:26:59;;;;;;;;;2.00;2.00;;;;;5.81;60.96;100311.06;5005020;28;45535;-80
2021/12/02 07:29:31;;;;;;;;;3.67;2.67;;;;;5.80;61.34;100306.66;4991429;28;45511;-76
2021/12/02 07:32:00;;;;;;;;;3.33;2.67;;;;;5.84;61.23;100324.28;4990330;28;45965;-78
2021/12/02 07:34:32;;;;;;;;;3.33;2.00;;;;;5.82;61.04;100293.72;4989777;28;45797;-75
2021/12/02 07:36:59;;;;;;;;;4.00;3.00;;;;;5.84;61.06;100310.69;4989254;28;45779;-78
2021/12/02 07:39:25;;;;;;;;;2.00;2.00;;;;;5.88;60.93;100304.88;4993925;28;45820;-77
2021/12/02 07:41:50;;;;;;;;;3.67;3.67;;;;;5.88;61.16;100302.16;4991922;28;45835;-76
2021/12/02 07:44:18;;;;;;;;;4.67;3.00;;;;;5.89;61.44;100282.91;4990684;28;46550;-83
2021/12/02 07:46:44;;;;;;;;;4.67;3.00;;;;;5.84;61.23;100263.59;4996655;28;45654;-79
2021/12/02 07:49:13;;;;;;;;;3.67;2.00;;;;;6.14;61.36;100291.63;4972564;28;45527;-81
2021/12/02 07:51:43;;;;;;;;;3.00;3.00;;;;;6.18;61.53;100281.19;4979195;28;45496;-80
2021/12/02 07:54:12;;;;;;;;;3.67;2.33;;;;;6.37;61.04;100304.25;4989535;28;47131;-78
2021/12/02 07:56:38;;;;;;;;;3.67;2.67;;;;;6.45;60.80;100290.53;4994924;28;45715;-80
2021/12/02 07:59:04;;;;;;;;;8.33;4.00;;;;;6.65;59.97;100309.78;4985962;28;45749;-80
2021/12/02 08:01:34;;;;;;;;;5.33;5.33;;;;;6.72;60.45;100304.38;4983131;28;46246;-78
2021/12/02 08:03:59;;;;;;;;;8.00;4.00;;;;;6.92;59.17;100320.13;4991623;28;46248;-80
2021/12/02 08:06:25;;;;;;;;;8.33;5.00;;;;;7.00;58.92;100312.63;5006364;28;45406;-77
2021/12/02 08:08:51;;;;;;;;;5.33;4.67;;;;;7.15;59.10;100320.72;4988506;28;45435;-77
2021/12/02 08:11:16;;;;;;;;;7.33;5.00;;;;;7.30;58.61;100328.81;5013426;28;45638;-76
2021/12/02 08:13:42;;;;;;;;;9.00;6.00;;;;;7.42;58.82;100321.78;4992590;28;46701;-76
2021/12/02 08:16:07;;;;;;;;;3.67;3.67;;;;;7.51;57.17;100330.66;4992104;28;45688;-75
2021/12/02 08:18:35;;;;;;;;;5.67;4.00;;;;;7.56;57.50;100333.63;4976091;28;45887;-76
2021/12/02 08:21:01;;;;;;;;;3.33;2.33;;;;;7.63;56.97;100330.94;4971810;28;45843;-76
2021/12/02 08:23:27;;;;;;;;;1.00;1.00;;;;;7.65;57.11;100337.06;4977338;28;47687;-76
2021/12/02 08:25:54;;;;;;;;;3.33;1.67;;;;;7.72;56.47;100337.91;4990373;28;45400;-77
2021/12/02 08:28:20;;;;;;;;;4.00;2.50;;;;;7.76;56.70;100341.13;4991912;28;45735;-76
2021/12/02 08:30:45;;;;;;;;;3.00;3.00;;;;;7.78;56.09;100353.53;4992160;28;45440;-77
2021/12/02 08:33:13;;;;;;;;;3.33;2.00;;;;;7.77;56.85;100340.91;4992221;28;45478;-78
2021/12/02 08:35:39;;;;;;;;;2.00;2.00;;;;;7.81;55.96;100354.16;4975547;28;45821;-77
2021/12/02 08:38:10;;;;;;;;;5.00;2.00;;;;;7.78;56.10;100363.59;4974402;28;45807;-77
2021/12/02 08:40:37;;;;;;;;;2.00;2.00;;;;;7.75;56.06;100362.13;4973389;28;45599;-81
2021/12/02 08:43:11;;;;;;;;;3.33;1.67;;;;;7.71;56.42;100362.69;4977511;28;45818;-78
2021/12/02 08:45:39;;;;;;;;;3.67;2.67;;;;;7.80;55.83;100366.97;4992585;28;46330;-79
2021/12/02 08:48:05;;;;;;;;;4.00;3.00;;;;;7.80;56.36;100353.31;4978927;28;45805;-78
2021/12/02 08:50:32;;;;;;;;;1.67;1.67;;;;;8.37;55.27;100362.22;4972342;28;46892;-79
2021/12/02 08:52:59;;;;;;;;;2.00;2.00;;;;;9.17;53.29;100364.34;4976596;28;46770;-83
2021/12/02 08:55:26;;;;;;;;;5.33;2.00;;;;;9.87;52.70;100350.19;4995652;28;45837;-83
2021/12/02 08:57:53;;;;;;;;;5.33;3.00;;;;;10.49;50.51;100353.38;4999756;28;45824;-82
2021/12/02 09:00:26;;;;;;;;;2.33;2.33;;;;;11.21;49.70;100377.00;4996238;28;46207;-82
2021/12/02 09:02:53;;;;;;;;;3.33;2.00;;;;;11.57;47.24;100373.56;4998548;28;47412;-84
2021/12/02 09:05:19;;;;;;;;;4.00;2.00;;;;;11.79;47.62;100379.47;4998069;28;45912;-82
2021/12/02 09:07:45;;;;;;;;;4.67;2.33;;;;;12.18;46.41;100385.69;4992740;28;45558;-82
2021/12/02 09:10:12;;;;;;;;;8.00;3.00;;;;;12.68;45.25;100381.06;5008280;28;45760;-83
2021/12/02 09:12:37;;;;;;;;;3.00;2.00;;;;;13.21;44.36;100383.03;4997872;28;45514;-82
2021/12/02 09:15:08;;;;;;;;;8.33;5.67;;;;;13.59;43.76;100387.34;4993288;28;45761;-85
2021/12/02 09:17:33;;;;;;;;;11.33;10.00;;;;;13.89;42.14;100380.91;4994621;28;46574;-85
2021/12/02 09:19:59;;;;;;;;;11.33;7.33;;;;;14.32;41.04;100386.25;4993917;28;46315;-83
2021/12/02 09:22:24;;;;;;;;;7.67;7.33;;;;;14.59;40.39;100383.78;5008207;28;46942;-83
2021/12/02 09:24:50;;;;;;;;;3.33;3.33;;;;;14.71;40.03;100384.59;4991878;28;45816;-80
2021/12/02 09:27:15;;;;;;;;;6.33;5.33;;;;;14.59;40.31;100379.06;4993659;28;45431;-81
2021/12/02 09:29:41;;;;;;;;;4.00;1.00;;;;;14.44;39.54;100393.41;4990555;28;45949;-76
2021/12/02 09:32:07;;;;;;;;;9.33;5.00;;;;;14.02;40.60;100385.31;4991683;28;46534;-76
2021/12/02 09:34:32;;;;;;;;;3.50;2.00;;;;;13.70;40.66;100395.88;4990654;28;45444;-76
2021/12/02 09:36:58;;;;;;;;;5.33;4.33;;;;;13.32;41.56;100391.56;4991251;28;45699;-78
2021/12/02 09:39:32;;;;;;;;;4.00;3.33;;;;;12.84;42.79;100387.81;4989569;28;46198;-76
2021/12/02 09:41:58;;;;;;;;;4.33;4.33;;;;;12.50;43.42;100396.50;4990221;28;46980;-78
2021/12/02 09:44:23;;;;;;;;;2.00;2.00;;;;;12.35;43.84;100396.06;4991869;28;45890;-79
2021/12/02 09:46:50;;;;;;;;;10.00;3.00;;;;;12.48;44.30;100406.06;4979588;28;45807;-77
2021/12/02 09:49:16;;;;;;;;;6.00;3.00;;;;;12.60;43.61;100400.63;4978660;28;46064;-81
2021/12/02 09:54:18;;;;;;;;;5.00;4.00;;;;;12.39;44.38;100416.53;4991986;28;45345;-81
2021/12/02 09:56:48;;;;;;;;;5.67;3.67;;;;;12.25;44.79;100423.25;4987266;28;45678;-81
2021/12/02 09:59:26;;;;;;;;;5.33;2.33;;;;;12.11;45.45;100419.78;4974337;28;45886;-82
2021/12/02 10:01:58;;;;;;;;;8.67;5.67;;;;;11.83;45.31;100415.59;4987484;28;45997;-79
2021/12/02 10:04:25;;;;;;;;;5.00;3.00;;;;;11.84;45.71;100420.88;4990756;28;45443;-78
2021/12/02 10:07:07;;;;;;;;;3.33;3.33;;;;;12.36;45.15;100425.22;4987294;28;45369;-78
2021/12/02 10:09:49;;;;;;;;;3.33;3.33;;;;;12.91;43.71;100420.78;4991916;28;45601;-78
2021/12/02 10:12:21;;;;;;;;;4.00;2.33;;;;;13.41;42.60;100420.47;5000573;28;46985;-76
2021/12/02 10:14:57;;;;;;;;;4.00;3.00;;;;;13.45;42.46;100429.13;5002104;28;45911;-73
2021/12/02 10:17:39;;;;;;;;;2.00;2.00;;;;;13.31;42.09;100436.69;4977968;28;45893;-80
2021/12/02 10:22:42;;;;;;;;;1.00;1.00;;;;;13.38;41.01;100415.44;4990759;28;45522;-79
2021/12/02 10:25:08;;;;;;;;;0.00;0.00;;;;;13.62;40.89;100416.31;4989626;28;45769;-79
2021/12/02 10:27:34;;;;;;;;;2.33;2.33;;;;;13.62;40.56;100419.06;4992410;28;45744;-75
2021/12/02 10:29:59;;;;;;;;;1.00;1.00;;;;;13.59;40.90;100436.94;4990340;28;46109;-74
2021/12/02 10:32:29;;;;;;;;;3.33;1.67;;;;;13.60;40.75;100432.25;4977698;28;46068;-76
2021/12/02 10:34:58;;;;;;;;;2.00;2.00;;;;;13.59;40.29;100436.09;4989796;28;45976;-75
2021/12/02 10:37:32;;;;;;;;;2.67;1.33;;;;;13.57;39.83;100427.22;4991769;28;45776;-76
2021/12/02 10:40:04;;;;;;;;;4.00;2.00;;;;;13.45;40.06;100438.22;4990952;28;45513;-77
2021/12/02 10:42:32;;;;;;;;;6.67;2.00;;;;;13.32;40.57;100419.94;4986543;28;45954;-81
2021/12/02 10:45:01;;;;;;;;;4.67;1.33;;;;;13.35;42.18;100425.03;4973580;28;45917;-80
2021/12/02 10:47:27;;;;;;;;;5.00;3.67;;;;;13.42;40.66;100416.66;4990760;28;45871;-78
2021/12/02 10:50:06;;;;;;;;;2.67;1.00;;;;;13.60;39.91;100411.03;4990312;28;46200;-78
2021/12/02 10:52:33;;;;;;;;;3.33;3.33;;;;;13.67;40.36;100416.47;4991691;28;46569;-75
2021/12/02 10:55:08;;;;;;;;;1.00;1.00;;;;;13.70;39.38;100404.13;4996637;28;45927;-76
2021/12/02 10:57:37;;;;;;;;;3.00;2.00;;;;;13.55;38.79;100405.44;4989064;28;45679;-78
2021/12/02 11:00:08;;;;;;;;;5.67;2.00;;;;;13.55;39.89;100408.19;4988033;28;45532;-76
2021/12/02 11:02:39;;;;;;;;;2.00;2.00;;;;;13.56;40.33;100401.59;4979859;28;45504;-78
2021/12/02 11:05:18;;;;;;;;;2.00;2.00;;;;;13.45;40.27;100396.91;4990524;28;45305;-76
2021/12/02 11:07:52;;;;;;;;;2.33;2.33;;;;;13.05;39.49;100408.47;4989077;28;45719;-77
2021/12/02 11:10:17;;;;;;;;;1.00;1.00;;;;;12.67;40.14;100404.97;5002545;28;45901;-79
2021/12/02 11:12:45;;;;;;;;;7.33;5.00;;;;;12.46;41.34;100403.53;4994123;28;48310;-79
2021/12/02 11:15:17;;;;;;;;;17.67;16.00;;;;;12.27;40.85;100410.09;4992302;28;45838;-75
2021/12/02 11:17:45;;;;;;;;;15.00;12.00;;;;;12.01;41.33;100403.81;4993070;28;45833;-77
2021/12/02 11:20:17;;;;;;;;;7.67;7.67;;;;;11.80;40.61;100394.91;5008407;28;46913;-77
2021/12/02 11:22:43;;;;;;;;;5.67;3.67;;;;;11.57;41.17;100403.78;4993051;28;46484;-77
2021/12/02 11:25:12;;;;;;;;;2.00;2.00;;;;;11.30;40.69;100403.13;4993422;28;45935;-83
2021/12/02 11:27:42;;;;;;;;;6.00;4.67;;;;;11.00;41.11;100402.91;4993893;28;45811;-82
2021/12/02 11:30:10;;;;;;;;;7.00;3.33;;;;;10.81;41.39;100410.19;4993616;28;45509;-81
2021/12/02 11:32:43;;;;;;;;;7.00;6.00;;;;;10.41;40.99;100390.09;4992891;28;46641;-77
2021/12/02 11:35:17;;;;;;;;;9.67;7.33;;;;;10.26;41.33;100408.69;4991415;28;45733;-82
2021/12/02 11:37:54;;;;;;;;;1.00;1.00;;;;;10.02;41.59;100397.34;5009457;28;45895;-82
2021/12/02 11:40:25;;;;;;;;;5.00;3.00;;;;;10.03;42.32;100407.25;4990863;28;45977;-78
2021/12/02 11:42:52;;;;;;;;;0.00;0.00;;;;;10.00;42.45;100402.22;4992680;28;48233;-80
2021/12/02 11:45:25;;;;;;;;;19.67;18.00;;;;;9.92;42.70;100399.69;4994888;28;45737;-82
2021/12/02 11:47:54;;;;;;;;;5.33;3.33;;;;;9.80;43.19;100385.78;4993845;28;45645;-81
2021/12/02 11:50:21;;;;;;;;;9.00;9.00;;;;;9.92;42.53;100399.69;4993704;28;45814;-82
2021/12/02 11:52:50;;;;;;;;;7.67;6.00;;;;;9.81;42.47;100378.44;4994858;28;47042;-82